Etusivu
METAR-TAF:

METAR-TAF

Lentoasemat :

Kuantan, Malesia

Leveyspiiri: 03-37N, Pituuspiiri: 103-13E, korkeus merenpinnasta: 18 m

Tämänhetkinen sää

Tämä raportti tehtiin 49 minuuttia sitten, kello 07.00 UTC
Tuuli 2 kn eri suunnista
Lämpötila 33°C
Kosteus 71%
Ilmanpaine 1009 hPa
Näkyvyys 10 km tai enemmän
Muutamia pilviä 1700 ft:n korkeudessa, Cumulonimbus.
Hajanaisia pilviä 1900 ft:n korkeudessa

METAR: WMKD 260700Z VRB02KT 9999 FEW017CB SCT019 33/27 Q1009 RETS NOSIG

Aika: 15:49 (07:49 UTC)


TAF: puuttuu

Säähavainnot ja -ennusteet yli 4000 lentoasemalta (METAR- ja TAF-raportit).

Käytössä olevat sääasemat on merkitty karttaan keltaisilla ja punaisilla pisteillä.

Aseta hiiri pisteen päälle nähdäksesi sääaseman nimen.

Klikkaa sitten nähdäksesi säähavainnot ja -ennusteet.

Kartan vaihtaminen: klikkaa mustalla rastilla varustettuja vihreitä pisteitä, niin voit zoomata sisään; viivalla varustettua vihreää pistettä, niin voit zoomata ulos tai vihreitä nuolia, niin pääset viereisille kartoille.


METAR-TAF: